createdAt,value
2018-11-11T20:48:27.972Z,91.30
2018-11-11T20:51:31.487Z,91.60
2018-11-11T20:54:34.708Z,91.90
2018-11-11T20:57:38.548Z,91.60
2018-11-11T21:00:42.717Z,91.70
2018-11-11T21:03:46.147Z,91.40
2018-11-11T21:06:50.950Z,91.60
2018-11-11T21:09:54.573Z,91.50
2018-11-11T21:13:02.090Z,91.30
2018-11-11T21:16:06.416Z,91.40
2018-11-11T21:19:11.226Z,91.50
2018-11-11T21:22:15.670Z,91.40
2018-11-11T21:25:19.619Z,90.90
2018-11-11T21:28:24.018Z,91.00
2018-11-11T21:31:27.618Z,91.10
2018-11-11T21:34:31.853Z,90.80
2018-11-11T21:37:35.423Z,90.70
2018-11-11T21:40:39.001Z,90.70
2018-11-11T21:43:42.435Z,91.00
2018-11-11T21:46:47.184Z,90.80
2018-11-11T21:49:52.002Z,90.80
2018-11-11T21:56:50.060Z,90.40
2018-11-11T21:59:53.477Z,90.60
2018-11-11T22:02:57.146Z,90.80
2018-11-11T22:06:01.270Z,90.80
2018-11-11T22:09:07.819Z,90.80
2018-11-11T22:12:12.192Z,90.70
2018-11-11T22:15:15.175Z,90.70
2018-11-11T22:18:18.189Z,90.90
2018-11-11T22:21:23.574Z,90.60
2018-11-11T22:24:26.641Z,90.20
2018-11-11T22:27:30.039Z,90.60
2018-11-11T22:30:33.224Z,90.50
2018-11-11T22:33:36.153Z,90.50
2018-11-11T22:36:39.189Z,90.50
2018-11-11T22:39:43.213Z,90.50
2018-11-11T22:42:46.877Z,90.40
2018-11-11T22:45:50.058Z,90.70
2018-11-11T22:48:53.322Z,90.20
2018-11-11T22:51:56.257Z,90.40
2018-11-11T22:54:59.344Z,90.60
2018-11-11T22:58:02.402Z,90.50
2018-11-11T23:01:11.106Z,90.10
2018-11-11T23:04:15.351Z,90.00
2018-11-11T23:07:18.372Z,90.00
2018-11-11T23:10:21.609Z,90.10
2018-11-11T23:13:24.538Z,90.30
2018-11-11T23:16:27.473Z,90.50
2018-11-11T23:19:30.433Z,90.60
2018-11-11T23:22:40.454Z,90.00
2018-11-11T23:25:43.386Z,89.90
2018-11-11T23:28:46.719Z,90.20
2018-11-11T23:31:49.684Z,90.10
2018-11-11T23:34:53.288Z,90.10
2018-11-11T23:37:56.249Z,90.20
2018-11-11T23:40:59.193Z,90.00
2018-11-11T23:44:03.648Z,90.00
2018-11-11T23:47:06.665Z,89.40
2018-11-11T23:50:15.657Z,89.40
2018-11-11T23:53:18.594Z,89.00
2018-11-11T23:56:21.577Z,90.00
2018-11-11T23:59:24.518Z,89.70
